sensor_id;sensor_type;location;lat;lon;timestamp;P1;durP1;ratioP1;P2;durP2;ratioP2
2662;SDS011;49701;48.072;7.800;2023-07-29T05:17:23;2.92;;;1.50;;
2662;SDS011;49701;48.072;7.800;2023-07-29T05:19:49;4.10;;;1.30;;
2662;SDS011;49701;48.072;7.800;2023-07-29T05:22:14;3.30;;;2.13;;
2662;SDS011;49701;48.072;7.800;2023-07-29T05:24:40;5.38;;;1.60;;
2662;SDS011;49701;48.072;7.800;2023-07-29T05:27:06;2.85;;;1.50;;
2662;SDS011;49701;48.072;7.800;2023-07-29T05:29:33;4.72;;;1.90;;
2662;SDS011;49701;48.072;7.800;2023-07-29T05:31:59;4.72;;;1.67;;
2662;SDS011;49701;48.072;7.800;2023-07-29T05:34:26;2.13;;;1.80;;
2662;SDS011;49701;48.072;7.800;2023-07-29T05:36:51;3.95;;;1.52;;
2662;SDS011;49701;48.072;7.800;2023-07-29T05:39:17;3.83;;;1.50;;
2662;SDS011;49701;48.072;7.800;2023-07-29T05:41:43;3.05;;;1.50;;
2662;SDS011;49701;48.072;7.800;2023-07-29T05:44:08;2.65;;;1.80;;
2662;SDS011;49701;48.072;7.800;2023-07-29T05:46:34;7.20;;;1.75;;
2662;SDS011;49701;48.072;7.800;2023-07-29T05:49:00;2.40;;;2.20;;
2662;SDS011;49701;48.072;7.800;2023-07-29T05:51:25;3.75;;;2.10;;
2662;SDS011;49701;48.072;7.800;2023-07-29T05:53:51;2.83;;;1.80;;
2662;SDS011;49701;48.072;7.800;2023-07-29T05:56:17;3.25;;;2.28;;
2662;SDS011;49701;48.072;7.800;2023-07-29T05:58:43;4.68;;;2.30;;
2662;SDS011;49701;48.072;7.800;2023-07-29T06:01:09;5.47;;;1.90;;
2662;SDS011;49701;48.072;7.800;2023-07-29T06:03:35;3.00;;;2.08;;
2662;SDS011;49701;48.072;7.800;2023-07-29T06:06:00;2.67;;;1.73;;
2662;SDS011;49701;48.072;7.800;2023-07-29T06:08:26;1.70;;;1.60;;
2662;SDS011;49701;48.072;7.800;2023-07-29T06:10:53;4.18;;;1.80;;
2662;SDS011;49701;48.072;7.800;2023-07-29T06:13:19;2.22;;;1.42;;
2662;SDS011;49701;48.072;7.800;2023-07-29T06:15:44;3.00;;;1.80;;
2662;SDS011;49701;48.072;7.800;2023-07-29T06:18:10;3.33;;;1.92;;
2662;SDS011;49701;48.072;7.800;2023-07-29T06:20:37;4.53;;;2.00;;
2662;SDS011;49701;48.072;7.800;2023-07-29T06:23:03;5.85;;;2.58;;
2662;SDS011;49701;48.072;7.800;2023-07-29T06:25:29;5.28;;;2.78;;
2662;SDS011;49701;48.072;7.800;2023-07-29T06:27:54;4.43;;;1.90;;
2662;SDS011;49701;48.072;7.800;2023-07-29T06:30:20;3.67;;;2.00;;
2662;SDS011;49701;48.072;7.800;2023-07-29T06:32:45;5.40;;;2.38;;
2662;SDS011;49701;48.072;7.800;2023-07-29T06:35:11;3.15;;;2.22;;
2662;SDS011;49701;48.072;7.800;2023-07-29T06:37:37;4.20;;;1.92;;
2662;SDS011;49701;48.072;7.800;2023-07-29T06:40:03;4.10;;;2.13;;
2662;SDS011;49701;48.072;7.800;2023-07-29T06:42:29;3.25;;;2.50;;
2662;SDS011;49701;48.072;7.800;2023-07-29T06:44:54;3.70;;;2.70;;
2662;SDS011;49701;48.072;7.800;2023-07-29T06:47:20;3.85;;;2.65;;
2662;SDS011;49701;48.072;7.800;2023-07-29T06:49:46;5.00;;;2.95;;
2662;SDS011;49701;48.072;7.800;2023-07-29T06:52:12;7.47;;;3.45;;
2662;SDS011;49701;48.072;7.800;2023-07-29T06:54:38;6.47;;;3.47;;
2662;SDS011;49701;48.072;7.800;2023-07-29T06:57:03;6.18;;;4.15;;
2662;SDS011;49701;48.072;7.800;2023-07-29T06:59:29;5.38;;;2.97;;
2662;SDS011;49701;48.072;7.800;2023-07-29T07:01:55;7.93;;;4.00;;
2662;SDS011;49701;48.072;7.800;2023-07-29T07:04:20;7.30;;;4.70;;
2662;SDS011;49701;48.072;7.800;2023-07-29T07:06:46;6.25;;;3.47;;
2662;SDS011;49701;48.072;7.800;2023-07-29T07:09:12;5.43;;;3.05;;
2662;SDS011;49701;48.072;7.800;2023-07-29T07:11:37;6.88;;;3.75;;
2662;SDS011;49701;48.072;7.800;2023-07-29T07:14:03;3.10;;;2.35;;
2662;SDS011;49701;48.072;7.800;2023-07-29T07:16:29;2.88;;;1.90;;
2662;SDS011;49701;48.072;7.800;2023-07-29T07:18:56;3.65;;;2.20;;
2662;SDS011;49701;48.072;7.800;2023-07-29T07:21:22;2.97;;;2.10;;
2662;SDS011;49701;48.072;7.800;2023-07-29T07:23:51;3.42;;;1.58;;
2662;SDS011;49701;48.072;7.800;2023-07-29T07:26:16;3.22;;;2.00;;
2662;SDS011;49701;48.072;7.800;2023-07-29T07:28:42;2.78;;;2.20;;
2662;SDS011;49701;48.072;7.800;2023-07-29T07:31:08;4.68;;;1.52;;
2662;SDS011;49701;48.072;7.800;2023-07-29T07:33:34;2.08;;;1.35;;
2662;SDS011;49701;48.072;7.800;2023-07-29T07:35:59;6.47;;;1.63;;
2662;SDS011;49701;48.072;7.800;2023-07-29T07:38:25;1.67;;;1.55;;
2662;SDS011;49701;48.072;7.800;2023-07-29T07:40:54;3.83;;;1.63;;
2662;SDS011;49701;48.072;7.800;2023-07-29T07:53:04;3.25;;;2.00;;
2662;SDS011;49701;48.072;7.800;2023-07-29T07:55:29;1.77;;;1.48;;
2662;SDS011;49701;48.072;7.800;2023-07-29T07:57:55;2.28;;;1.58;;
2662;SDS011;49701;48.072;7.800;2023-07-29T08:00:21;2.25;;;1.75;;
2662;SDS011;49701;48.072;7.800;2023-07-29T08:02:46;1.55;;;1.30;;
2662;SDS011;49701;48.072;7.800;2023-07-29T08:05:12;2.63;;;1.45;;
2662;SDS011;49701;48.072;7.800;2023-07-29T08:07:38;3.60;;;1.40;;
2662;SDS011;49701;48.072;7.800;2023-07-29T08:10:03;3.15;;;2.00;;
2662;SDS011;49701;48.072;7.800;2023-07-29T08:12:30;1.42;;;1.30;;
2662;SDS011;49701;48.072;7.800;2023-07-29T08:14:55;2.85;;;1.60;;
2662;SDS011;49701;48.072;7.800;2023-07-29T08:17:21;2.63;;;1.60;;
2662;SDS011;49701;48.072;7.800;2023-07-29T08:19:47;3.90;;;1.50;;
2662;SDS011;49701;48.072;7.800;2023-07-29T08:22:12;1.85;;;1.30;;
2662;SDS011;49701;48.072;7.800;2023-07-29T08:24:38;2.20;;;1.40;;
2662;SDS011;49701;48.072;7.800;2023-07-29T08:27:04;1.67;;;1.55;;
2662;SDS011;49701;48.072;7.800;2023-07-29T08:29:30;1.50;;;1.40;;
2662;SDS011;49701;48.072;7.800;2023-07-29T08:31:55;1.55;;;1.45;;
2662;SDS011;49701;48.072;7.800;2023-07-29T08:34:21;2.03;;;1.50;;
2662;SDS011;49701;48.072;7.800;2023-07-29T08:36:47;2.47;;;1.63;;
2662;SDS011;49701;48.072;7.800;2023-07-29T08:39:12;3.80;;;1.40;;
2662;SDS011;49701;48.072;7.800;2023-07-29T08:41:45;3.90;;;1.55;;
2662;SDS011;49701;48.072;7.800;2023-07-29T08:44:20;1.60;;;1.50;;
2662;SDS011;49701;48.072;7.800;2023-07-29T08:46:50;1.35;;;1.25;;
2662;SDS011;49701;48.072;7.800;2023-07-29T08:49:17;5.20;;;1.60;;
2662;SDS011;49701;48.072;7.800;2023-07-29T08:51:47;3.38;;;1.80;;
2662;SDS011;49701;48.072;7.800;2023-07-29T08:54:13;1.77;;;1.55;;
2662;SDS011;49701;48.072;7.800;2023-07-29T08:56:43;1.67;;;1.42;;
2662;SDS011;49701;48.072;7.800;2023-07-29T08:59:09;2.85;;;1.70;;
2662;SDS011;49701;48.072;7.800;2023-07-29T09:01:37;3.67;;;1.58;;
2662;SDS011;49701;48.072;7.800;2023-07-29T09:04:03;2.53;;;1.50;;
2662;SDS011;49701;48.072;7.800;2023-07-29T09:06:30;2.38;;;1.20;;
2662;SDS011;49701;48.072;7.800;2023-07-29T09:08:56;2.03;;;1.30;;
2662;SDS011;49701;48.072;7.800;2023-07-29T09:11:24;2.15;;;1.48;;
2662;SDS011;49701;48.072;7.800;2023-07-29T09:13:50;3.42;;;1.58;;
2662;SDS011;49701;48.072;7.800;2023-07-29T09:16:16;2.88;;;1.50;;
2662;SDS011;49701;48.072;7.800;2023-07-29T09:18:42;4.10;;;1.50;;
2662;SDS011;49701;48.072;7.800;2023-07-29T09:21:07;2.55;;;1.40;;
2662;SDS011;49701;48.072;7.800;2023-07-29T09:23:43;1.45;;;1.30;;
2662;SDS011;49701;48.072;7.800;2023-07-29T09:26:10;1.48;;;1.33;;
2662;SDS011;49701;48.072;7.800;2023-07-29T09:28:37;1.60;;;1.50;;
2662;SDS011;49701;48.072;7.800;2023-07-29T09:31:04;1.88;;;1.50;;
2662;SDS011;49701;48.072;7.800;2023-07-29T09:33:33;1.60;;;1.50;;
2662;SDS011;49701;48.072;7.800;2023-07-29T09:36:08;2.97;;;1.50;;
2662;SDS011;49701;48.072;7.800;2023-07-29T09:38:35;2.22;;;1.55;;
2662;SDS011;49701;48.072;7.800;2023-07-29T09:41:01;2.20;;;1.73;;
2662;SDS011;49701;48.072;7.800;2023-07-29T09:43:32;3.03;;;1.77;;
2662;SDS011;49701;48.072;7.800;2023-07-29T09:46:03;3.00;;;1.70;;
2662;SDS011;49701;48.072;7.800;2023-07-29T09:48:33;2.80;;;1.65;;
2662;SDS011;49701;48.072;7.800;2023-07-29T09:51:11;5.22;;;1.60;;
2662;SDS011;49701;48.072;7.800;2023-07-29T09:53:45;2.45;;;1.52;;
2662;SDS011;49701;48.072;7.800;2023-07-29T09:56:12;1.98;;;1.75;;
2662;SDS011;49701;48.072;7.800;2023-07-29T09:58:38;3.95;;;1.48;;
2662;SDS011;49701;48.072;7.800;2023-07-29T10:01:05;2.33;;;1.75;;
2662;SDS011;49701;48.072;7.800;2023-07-29T10:03:31;2.28;;;1.85;;
2662;SDS011;49701;48.072;7.800;2023-07-29T10:06:02;1.90;;;1.80;;
2662;SDS011;49701;48.072;7.800;2023-07-29T10:08:29;3.05;;;1.70;;
2662;SDS011;49701;48.072;7.800;2023-07-29T10:11:05;8.95;;;2.15;;
2662;SDS011;49701;48.072;7.800;2023-07-29T10:13:34;3.65;;;1.80;;
2662;SDS011;49701;48.072;7.800;2023-07-29T10:16:02;1.95;;;1.85;;
2662;SDS011;49701;48.072;7.800;2023-07-29T10:18:32;2.90;;;1.60;;
2662;SDS011;49701;48.072;7.800;2023-07-29T10:20:59;1.70;;;1.60;;
2662;SDS011;49701;48.072;7.800;2023-07-29T10:23:26;2.08;;;1.80;;
2662;SDS011;49701;48.072;7.800;2023-07-29T10:26:11;3.88;;;1.77;;
2662;SDS011;49701;48.072;7.800;2023-07-29T10:28:41;3.20;;;1.70;;
2662;SDS011;49701;48.072;7.800;2023-07-29T10:31:12;3.40;;;1.70;;
2662;SDS011;49701;48.072;7.800;2023-07-29T10:33:41;1.73;;;1.50;;
2662;SDS011;49701;48.072;7.800;2023-07-29T10:36:07;2.25;;;1.63;;
2662;SDS011;49701;48.072;7.800;2023-07-29T10:38:33;2.85;;;2.00;;
2662;SDS011;49701;48.072;7.800;2023-07-29T10:40:59;4.10;;;1.83;;
2662;SDS011;49701;48.072;7.800;2023-07-29T10:43:26;2.20;;;1.63;;
2662;SDS011;49701;48.072;7.800;2023-07-29T10:46:20;2.33;;;1.70;;
2662;SDS011;49701;48.072;7.800;2023-07-29T10:51:35;2.53;;;1.90;;
2662;SDS011;49701;48.072;7.800;2023-07-29T10:54:03;2.33;;;1.83;;
2662;SDS011;49701;48.072;7.800;2023-07-29T10:56:43;2.03;;;1.70;;
2662;SDS011;49701;48.072;7.800;2023-07-29T11:01:42;2.08;;;1.85;;
2662;SDS011;49701;48.072;7.800;2023-07-29T11:09:41;2.05;;;1.60;;
2662;SDS011;49701;48.072;7.800;2023-07-29T11:15:12;3.92;;;1.60;;
2662;SDS011;49701;48.072;7.800;2023-07-29T11:18:06;1.60;;;1.50;;
2662;SDS011;49701;48.072;7.800;2023-07-29T11:20:32;3.20;;;1.77;;
2662;SDS011;49701;48.072;7.800;2023-07-29T11:22:59;3.47;;;1.52;;
2662;SDS011;49701;48.072;7.800;2023-07-29T11:25:29;3.28;;;1.42;;
2662;SDS011;49701;48.072;7.800;2023-07-29T11:27:56;1.40;;;1.30;;
2662;SDS011;49701;48.072;7.800;2023-07-29T11:30:24;2.08;;;1.40;;
2662;SDS011;49701;48.072;7.800;2023-07-29T11:32:54;1.83;;;1.25;;
2662;SDS011;49701;48.072;7.800;2023-07-29T11:35:23;2.45;;;1.50;;
2662;SDS011;49701;48.072;7.800;2023-07-29T11:37:50;1.55;;;1.40;;
2662;SDS011;49701;48.072;7.800;2023-07-29T11:40:17;1.40;;;1.30;;
2662;SDS011;49701;48.072;7.800;2023-07-29T11:42:44;1.50;;;1.23;;
2662;SDS011;49701;48.072;7.800;2023-07-29T11:45:17;2.27;;;1.47;;
2662;SDS011;49701;48.072;7.800;2023-07-29T11:47:44;3.13;;;1.27;;
2662;SDS011;49701;48.072;7.800;2023-07-29T11:50:11;3.70;;;1.38;;
2662;SDS011;49701;48.072;7.800;2023-07-29T11:52:42;1.95;;;1.05;;
2662;SDS011;49701;48.072;7.800;2023-07-29T11:55:09;1.55;;;1.33;;
2662;SDS011;49701;48.072;7.800;2023-07-29T11:57:37;1.50;;;1.40;;
2662;SDS011;49701;48.072;7.800;2023-07-29T12:00:04;2.00;;;1.80;;
2662;SDS011;49701;48.072;7.800;2023-07-29T12:02:34;1.70;;;1.52;;
2662;SDS011;49701;48.072;7.800;2023-07-29T12:05:03;2.13;;;1.33;;
2662;SDS011;49701;48.072;7.800;2023-07-29T12:07:33;1.30;;;1.20;;
2662;SDS011;49701;48.072;7.800;2023-07-29T12:09:59;1.52;;;1.42;;
2662;SDS011;49701;48.072;7.800;2023-07-29T12:12:25;2.88;;;1.35;;
2662;SDS011;49701;48.072;7.800;2023-07-29T12:14:57;1.48;;;1.38;;
2662;SDS011;49701;48.072;7.800;2023-07-29T12:17:23;1.60;;;1.50;;
2662;SDS011;49701;48.072;7.800;2023-07-29T12:19:48;1.75;;;1.10;;
2662;SDS011;49701;48.072;7.800;2023-07-29T12:22:19;1.95;;;1.52;;
2662;SDS011;49701;48.072;7.800;2023-07-29T12:24:45;1.27;;;1.17;;
2662;SDS011;49701;48.072;7.800;2023-07-29T12:27:11;1.35;;;1.25;;
2662;SDS011;49701;48.072;7.800;2023-07-29T12:29:41;2.58;;;1.60;;
2662;SDS011;49701;48.072;7.800;2023-07-29T12:32:07;2.65;;;1.30;;
2662;SDS011;49701;48.072;7.800;2023-07-29T12:34:34;1.35;;;1.25;;
2662;SDS011;49701;48.072;7.800;2023-07-29T12:37:02;2.05;;;1.48;;
2662;SDS011;49701;48.072;7.800;2023-07-29T12:39:29;2.10;;;1.42;;
2662;SDS011;49701;48.072;7.800;2023-07-29T12:41:58;1.33;;;1.23;;
2662;SDS011;49701;48.072;7.800;2023-07-29T12:44:34;2.80;;;1.58;;
2662;SDS011;49701;48.072;7.800;2023-07-29T12:47:01;1.90;;;1.50;;
2662;SDS011;49701;48.072;7.800;2023-07-29T12:49:28;1.98;;;1.42;;
2662;SDS011;49701;48.072;7.800;2023-07-29T12:51:58;2.53;;;1.40;;
2662;SDS011;49701;48.072;7.800;2023-07-29T12:54:24;2.25;;;1.50;;
2662;SDS011;49701;48.072;7.800;2023-07-29T12:56:50;1.95;;;1.40;;
2662;SDS011;49701;48.072;7.800;2023-07-29T12:59:16;2.25;;;1.40;;
2662;SDS011;49701;48.072;7.800;2023-07-29T13:01:42;1.65;;;1.30;;
2662;SDS011;49701;48.072;7.800;2023-07-29T13:04:09;1.75;;;1.65;;
2662;SDS011;49701;48.072;7.800;2023-07-29T13:06:35;2.42;;;1.50;;
2662;SDS011;49701;48.072;7.800;2023-07-29T13:09:01;1.65;;;1.55;;
2662;SDS011;49701;48.072;7.800;2023-07-29T13:11:26;1.98;;;1.85;;
2662;SDS011;49701;48.072;7.800;2023-07-29T13:13:52;20.60;;;15.90;;
2662;SDS011;49701;48.072;7.800;2023-07-29T13:16:18;22.27;;;17.55;;
2662;SDS011;49701;48.072;7.800;2023-07-29T13:18:44;8.07;;;6.80;;
2662;SDS011;49701;48.072;7.800;2023-07-29T13:21:09;1.65;;;1.55;;
2662;SDS011;49701;48.072;7.800;2023-07-29T13:23:35;1.35;;;1.25;;
2662;SDS011;49701;48.072;7.800;2023-07-29T13:26:01;2.65;;;1.67;;
2662;SDS011;49701;48.072;7.800;2023-07-29T13:28:27;1.50;;;1.40;;
2662;SDS011;49701;48.072;7.800;2023-07-29T13:30:52;3.00;;;1.13;;
2662;SDS011;49701;48.072;7.800;2023-07-29T13:33:18;2.30;;;2.10;;
2662;SDS011;49701;48.072;7.800;2023-07-29T13:35:44;5.10;;;4.60;;
2662;SDS011;49701;48.072;7.800;2023-07-29T13:38:09;2.30;;;2.10;;
2662;SDS011;49701;48.072;7.800;2023-07-29T13:40:36;3.08;;;1.60;;
2662;SDS011;49701;48.072;7.800;2023-07-29T13:43:02;1.40;;;1.30;;
2662;SDS011;49701;48.072;7.800;2023-07-29T13:45:27;1.17;;;1.08;;
2662;SDS011;49701;48.072;7.800;2023-07-29T13:47:53;10.77;;;1.60;;
2662;SDS011;49701;48.072;7.800;2023-07-29T13:50:19;1.50;;;1.40;;
2662;SDS011;49701;48.072;7.800;2023-07-29T13:52:44;2.63;;;1.70;;
2662;SDS011;49701;48.072;7.800;2023-07-29T13:55:10;1.50;;;1.40;;
2662;SDS011;49701;48.072;7.800;2023-07-29T13:57:36;1.67;;;1.58;;
2662;SDS011;49701;48.072;7.800;2023-07-29T14:00:04;3.20;;;1.20;;
2662;SDS011;49701;48.072;7.800;2023-07-29T14:02:36;2.45;;;1.60;;
2662;SDS011;49701;48.072;7.800;2023-07-29T14:05:02;2.08;;;1.50;;
2662;SDS011;49701;48.072;7.800;2023-07-29T14:07:28;1.92;;;1.70;;
2662;SDS011;49701;48.072;7.800;2023-07-29T14:09:54;2.08;;;1.63;;
2662;SDS011;49701;48.072;7.800;2023-07-29T14:12:19;2.42;;;1.50;;
2662;SDS011;49701;48.072;7.800;2023-07-29T14:14:45;2.17;;;1.48;;
2662;SDS011;49701;48.072;7.800;2023-07-29T14:17:10;4.15;;;1.80;;
2662;SDS011;49701;48.072;7.800;2023-07-29T14:19:36;1.67;;;1.50;;
2662;SDS011;49701;48.072;7.800;2023-07-29T14:22:02;2.15;;;1.40;;
2662;SDS011;49701;48.072;7.800;2023-07-29T14:24:28;1.63;;;1.42;;
2662;SDS011;49701;48.072;7.800;2023-07-29T14:26:54;2.72;;;2.53;;
2662;SDS011;49701;48.072;7.800;2023-07-29T14:29:19;2.05;;;1.77;;
2662;SDS011;49701;48.072;7.800;2023-07-29T14:31:45;2.20;;;1.98;;
2662;SDS011;49701;48.072;7.800;2023-07-29T14:34:11;3.42;;;1.98;;
2662;SDS011;49701;48.072;7.800;2023-07-29T14:36:36;3.42;;;2.38;;
2662;SDS011;49701;48.072;7.800;2023-07-29T14:39:02;3.03;;;1.70;;
2662;SDS011;49701;48.072;7.800;2023-07-29T14:41:31;2.05;;;1.60;;
2662;SDS011;49701;48.072;7.800;2023-07-29T14:43:59;8.27;;;7.47;;
2662;SDS011;49701;48.072;7.800;2023-07-29T14:46:25;2.38;;;2.17;;
2662;SDS011;49701;48.072;7.800;2023-07-29T14:48:51;9.48;;;5.93;;
2662;SDS011;49701;48.072;7.800;2023-07-29T14:51:17;22.42;;;9.60;;
2662;SDS011;49701;48.072;7.800;2023-07-29T14:53:42;2.50;;;2.30;;
2662;SDS011;49701;48.072;7.800;2023-07-29T14:56:08;2.90;;;1.70;;
2662;SDS011;49701;48.072;7.800;2023-07-29T14:58:34;2.83;;;2.47;;
2662;SDS011;49701;48.072;7.800;2023-07-29T15:00:59;5.88;;;2.97;;
2662;SDS011;49701;48.072;7.800;2023-07-29T15:03:25;4.20;;;2.70;;
2662;SDS011;49701;48.072;7.800;2023-07-29T15:05:51;3.03;;;2.40;;
2662;SDS011;49701;48.072;7.800;2023-07-29T15:08:17;3.60;;;2.10;;
2662;SDS011;49701;48.072;7.800;2023-07-29T15:10:49;7.10;;;2.90;;
2662;SDS011;49701;48.072;7.800;2023-07-29T15:13:15;6.75;;;2.58;;
2662;SDS011;49701;48.072;7.800;2023-07-29T15:15:41;6.18;;;4.07;;
2662;SDS011;49701;48.072;7.800;2023-07-29T15:18:08;4.78;;;2.40;;
2662;SDS011;49701;48.072;7.800;2023-07-29T15:20:33;5.50;;;3.55;;
2662;SDS011;49701;48.072;7.800;2023-07-29T15:22:59;4.82;;;2.45;;
2662;SDS011;49701;48.072;7.800;2023-07-29T15:25:25;4.30;;;2.33;;
2662;SDS011;49701;48.072;7.800;2023-07-29T15:27:51;3.88;;;2.60;;
2662;SDS011;49701;48.072;7.800;2023-07-29T15:30:16;2.22;;;2.03;;
2662;SDS011;49701;48.072;7.800;2023-07-29T15:32:42;4.47;;;2.30;;
2662;SDS011;49701;48.072;7.800;2023-07-29T15:35:08;2.10;;;1.90;;
2662;SDS011;49701;48.072;7.800;2023-07-29T15:37:34;4.07;;;2.00;;
2662;SDS011;49701;48.072;7.800;2023-07-29T15:39:59;2.92;;;2.00;;
2662;SDS011;49701;48.072;7.800;2023-07-29T15:42:25;3.17;;;2.28;;
2662;SDS011;49701;48.072;7.800;2023-07-29T15:44:51;3.20;;;2.10;;
2662;SDS011;49701;48.072;7.800;2023-07-29T15:47:16;2.55;;;2.33;;
2662;SDS011;49701;48.072;7.800;2023-07-29T15:49:44;2.50;;;2.30;;
2662;SDS011;49701;48.072;7.800;2023-07-29T15:52:10;2.20;;;2.00;;
2662;SDS011;49701;48.072;7.800;2023-07-29T15:54:38;4.10;;;2.17;;
2662;SDS011;49701;48.072;7.800;2023-07-29T15:57:04;2.63;;;2.20;;
2662;SDS011;49701;48.072;7.800;2023-07-29T15:59:30;4.00;;;1.98;;
2662;SDS011;49701;48.072;7.800;2023-07-29T16:01:56;3.63;;;2.13;;
2662;SDS011;49701;48.072;7.800;2023-07-29T16:04:22;2.38;;;2.17;;
2662;SDS011;49701;48.072;7.800;2023-07-29T16:06:48;2.75;;;2.22;;
2662;SDS011;49701;48.072;7.800;2023-07-29T16:09:14;3.03;;;2.25;;
2662;SDS011;49701;48.072;7.800;2023-07-29T16:11:39;3.88;;;2.30;;
2662;SDS011;49701;48.072;7.800;2023-07-29T16:14:05;2.92;;;2.20;;
2662;SDS011;49701;48.072;7.800;2023-07-29T16:16:31;2.35;;;2.13;;
2662;SDS011;49701;48.072;7.800;2023-07-29T16:18:56;3.50;;;2.20;;
2662;SDS011;49701;48.072;7.800;2023-07-29T16:21:22;2.47;;;2.25;;
2662;SDS011;49701;48.072;7.800;2023-07-29T16:23:48;3.20;;;2.40;;
2662;SDS011;49701;48.072;7.800;2023-07-29T16:26:18;2.95;;;2.30;;
2662;SDS011;49701;48.072;7.800;2023-07-29T16:28:47;2.65;;;2.33;;
2662;SDS011;49701;48.072;7.800;2023-07-29T16:31:13;2.97;;;2.65;;
2662;SDS011;49701;48.072;7.800;2023-07-29T16:33:39;3.67;;;2.40;;
2662;SDS011;49701;48.072;7.800;2023-07-29T16:36:05;3.08;;;2.78;;
2662;SDS011;49701;48.072;7.800;2023-07-29T16:38:31;2.92;;;2.70;;
2662;SDS011;49701;48.072;7.800;2023-07-29T16:40:56;3.63;;;2.50;;
2662;SDS011;49701;48.072;7.800;2023-07-29T16:43:22;3.58;;;2.25;;
2662;SDS011;49701;48.072;7.800;2023-07-29T16:45:47;4.95;;;3.00;;
2662;SDS011;49701;48.072;7.800;2023-07-29T16:48:13;3.80;;;2.67;;
2662;SDS011;49701;48.072;7.800;2023-07-29T16:50:39;4.00;;;2.72;;
2662;SDS011;49701;48.072;7.800;2023-07-29T16:53:05;6.32;;;2.90;;
2662;SDS011;49701;48.072;7.800;2023-07-29T16:55:30;4.18;;;2.78;;
2662;SDS011;49701;48.072;7.800;2023-07-29T16:57:56;3.30;;;3.00;;
2662;SDS011;49701;48.072;7.800;2023-07-29T17:00:22;4.63;;;3.45;;
2662;SDS011;49701;48.072;7.800;2023-07-29T17:02:47;5.82;;;3.58;;
2662;SDS011;49701;48.072;7.800;2023-07-29T17:05:13;3.40;;;2.60;;
2662;SDS011;49701;48.072;7.800;2023-07-29T17:07:39;6.80;;;3.45;;
2662;SDS011;49701;48.072;7.800;2023-07-29T17:10:04;3.70;;;2.88;;
2662;SDS011;49701;48.072;7.800;2023-07-29T17:12:30;4.15;;;3.22;;
2662;SDS011;49701;48.072;7.800;2023-07-29T17:14:57;4.78;;;3.20;;
2662;SDS011;49701;48.072;7.800;2023-07-29T17:17:22;3.58;;;2.70;;
2662;SDS011;49701;48.072;7.800;2023-07-29T17:19:48;3.45;;;2.95;;
2662;SDS011;49701;48.072;7.800;2023-07-29T17:22:14;3.88;;;2.80;;
2662;SDS011;49701;48.072;7.800;2023-07-29T17:24:40;3.67;;;2.92;;
2662;SDS011;49701;48.072;7.800;2023-07-29T17:27:06;3.17;;;2.88;;
2662;SDS011;49701;48.072;7.800;2023-07-29T17:29:32;6.05;;;3.30;;
2662;SDS011;49701;48.072;7.800;2023-07-29T17:31:57;3.67;;;2.92;;
2662;SDS011;49701;48.072;7.800;2023-07-29T17:34:23;3.30;;;3.00;;
2662;SDS011;49701;48.072;7.800;2023-07-29T17:36:49;4.47;;;3.05;;
2662;SDS011;49701;48.072;7.800;2023-07-29T17:39:14;3.72;;;3.03;;
2662;SDS011;49701;48.072;7.800;2023-07-29T17:41:40;3.00;;;2.70;;
2662;SDS011;49701;48.072;7.800;2023-07-29T17:44:06;3.17;;;2.88;;
2662;SDS011;49701;48.072;7.800;2023-07-29T17:46:31;4.03;;;2.90;;
2662;SDS011;49701;48.072;7.800;2023-07-29T17:48:59;3.95;;;3.45;;
2662;SDS011;49701;48.072;7.800;2023-07-29T17:51:24;5.80;;;4.32;;
2662;SDS011;49701;48.072;7.800;2023-07-29T17:53:50;5.25;;;3.63;;
2662;SDS011;49701;48.072;7.800;2023-07-29T17:56:16;5.03;;;3.88;;
2662;SDS011;49701;48.072;7.800;2023-07-29T17:58:41;4.53;;;3.20;;
2662;SDS011;49701;48.072;7.800;2023-07-29T18:01:07;6.03;;;3.50;;
2662;SDS011;49701;48.072;7.800;2023-07-29T18:03:32;3.60;;;3.22;;
2662;SDS011;49701;48.072;7.800;2023-07-29T18:05:58;3.30;;;2.92;;
2662;SDS011;49701;48.072;7.800;2023-07-29T18:08:24;3.40;;;3.00;;
2662;SDS011;49701;48.072;7.800;2023-07-29T18:10:50;4.85;;;3.47;;
2662;SDS011;49701;48.072;7.800;2023-07-29T18:13:16;3.45;;;3.05;;
2662;SDS011;49701;48.072;7.800;2023-07-29T18:15:41;4.82;;;2.90;;
2662;SDS011;49701;48.072;7.800;2023-07-29T18:18:07;3.47;;;2.72;;
2662;SDS011;49701;48.072;7.800;2023-07-29T18:20:33;3.83;;;2.75;;
2662;SDS011;49701;48.072;7.800;2023-07-29T18:23:01;3.15;;;2.65;;
2662;SDS011;49701;48.072;7.800;2023-07-29T18:25:30;12.48;;;3.50;;
2662;SDS011;49701;48.072;7.800;2023-07-29T18:27:57;3.88;;;3.10;;
2662;SDS011;49701;48.072;7.800;2023-07-29T18:30:23;3.55;;;2.70;;
2662;SDS011;49701;48.072;7.800;2023-07-29T18:32:49;4.57;;;3.03;;
2662;SDS011;49701;48.072;7.800;2023-07-29T18:35:14;3.50;;;3.20;;
2662;SDS011;49701;48.072;7.800;2023-07-29T18:37:43;3.58;;;2.75;;
2662;SDS011;49701;48.072;7.800;2023-07-29T18:40:09;3.53;;;2.75;;
2662;SDS011;49701;48.072;7.800;2023-07-29T18:42:36;3.95;;;3.00;;
2662;SDS011;49701;48.072;7.800;2023-07-29T18:45:01;4.60;;;2.92;;
2662;SDS011;49701;48.072;7.800;2023-07-29T18:47:27;4.10;;;3.30;;
2662;SDS011;49701;48.072;7.800;2023-07-29T18:49:53;3.50;;;3.20;;
2662;SDS011;49701;48.072;7.800;2023-07-29T18:52:18;3.20;;;2.80;;
2662;SDS011;49701;48.072;7.800;2023-07-29T18:54:44;4.65;;;3.08;;
2662;SDS011;49701;48.072;7.800;2023-07-29T18:57:11;3.38;;;2.85;;
2662;SDS011;49701;48.072;7.800;2023-07-29T18:59:37;4.07;;;2.83;;
2662;SDS011;49701;48.072;7.800;2023-07-29T19:02:04;3.22;;;2.85;;
2662;SDS011;49701;48.072;7.800;2023-07-29T19:04:30;5.93;;;2.70;;
2662;SDS011;49701;48.072;7.800;2023-07-29T19:06:56;3.53;;;2.67;;
2662;SDS011;49701;48.072;7.800;2023-07-29T19:09:22;3.00;;;2.65;;
2662;SDS011;49701;48.072;7.800;2023-07-29T19:11:50;4.25;;;3.00;;
2662;SDS011;49701;48.072;7.800;2023-07-29T19:14:16;3.53;;;2.80;;
2662;SDS011;49701;48.072;7.800;2023-07-29T19:16:42;4.05;;;2.65;;
2662;SDS011;49701;48.072;7.800;2023-07-29T19:19:07;3.78;;;2.70;;
2662;SDS011;49701;48.072;7.800;2023-07-29T19:21:33;3.30;;;2.30;;
2662;SDS011;49701;48.072;7.800;2023-07-29T19:23:59;3.90;;;2.55;;
2662;SDS011;49701;48.072;7.800;2023-07-29T19:26:24;4.22;;;2.58;;
2662;SDS011;49701;48.072;7.800;2023-07-29T19:28:50;5.18;;;2.75;;
2662;SDS011;49701;48.072;7.800;2023-07-29T19:31:16;4.85;;;2.80;;
2662;SDS011;49701;48.072;7.800;2023-07-29T19:33:41;3.40;;;2.72;;
2662;SDS011;49701;48.072;7.800;2023-07-29T19:36:08;4.60;;;3.20;;
2662;SDS011;49701;48.072;7.800;2023-07-29T19:38:35;3.78;;;2.80;;
2662;SDS011;49701;48.072;7.800;2023-07-29T19:41:01;4.25;;;3.20;;
2662;SDS011;49701;48.072;7.800;2023-07-29T19:43:27;4.00;;;3.10;;
2662;SDS011;49701;48.072;7.800;2023-07-29T19:45:55;4.60;;;2.92;;
2662;SDS011;49701;48.072;7.800;2023-07-29T19:48:21;3.85;;;3.00;;
2662;SDS011;49701;48.072;7.800;2023-07-29T19:50:47;3.17;;;2.70;;
2662;SDS011;49701;48.072;7.800;2023-07-29T19:53:12;4.82;;;3.00;;
2662;SDS011;49701;48.072;7.800;2023-07-29T19:55:38;2.80;;;2.60;;
2662;SDS011;49701;48.072;7.800;2023-07-29T19:58:04;3.17;;;2.80;;
2662;SDS011;49701;48.072;7.800;2023-07-29T20:00:29;5.40;;;3.13;;
2662;SDS011;49701;48.072;7.800;2023-07-29T20:02:57;2.80;;;2.55;;
2662;SDS011;49701;48.072;7.800;2023-07-29T20:05:23;3.38;;;2.72;;
2662;SDS011;49701;48.072;7.800;2023-07-29T20:07:51;5.55;;;2.42;;
2662;SDS011;49701;48.072;7.800;2023-07-29T20:10:18;6.57;;;3.10;;
2662;SDS011;49701;48.072;7.800;2023-07-29T20:12:43;3.90;;;2.40;;
2662;SDS011;49701;48.072;7.800;2023-07-29T20:15:09;3.42;;;2.50;;
2662;SDS011;49701;48.072;7.800;2023-07-29T20:17:35;3.45;;;2.30;;
2662;SDS011;49701;48.072;7.800;2023-07-29T20:20:00;3.80;;;2.72;;
2662;SDS011;49701;48.072;7.800;2023-07-29T20:22:27;3.00;;;2.50;;
2662;SDS011;49701;48.072;7.800;2023-07-29T20:24:52;3.25;;;2.40;;
2662;SDS011;49701;48.072;7.800;2023-07-29T20:27:18;2.53;;;2.33;;
2662;SDS011;49701;48.072;7.800;2023-07-29T20:29:44;2.83;;;2.60;;
2662;SDS011;49701;48.072;7.800;2023-07-29T20:32:09;2.50;;;2.30;;
2662;SDS011;49701;48.072;7.800;2023-07-29T20:34:36;2.85;;;2.25;;
2662;SDS011;49701;48.072;7.800;2023-07-29T20:37:02;2.40;;;2.20;;